F/V El Amanecer — FHKI — position and weather

sailwx.info

Track history (hours):
 
Tides and Currents Weather Stations Pressure Air Temp Water Temp Dewpoint Dewpoint Depression Visibility Wind Speed Wind Dir Waves Ship Positions

F/V El Amanecer

Last reported at 2018-Feb-19 08:21 UTC. Time now 2018-Feb-21 23:16 UTC.
Position N 47°16' W 002°34'.

Length 20 m; draft 3.5 m.

Type: Fishing. MMSI: 228157000.

Date/timePositionNaut miles runAvg speedWind from/ knotsBaromVisibWave heightAir tempDewpointWater temp
2018-Feb-19 08:21N 47°16' W 002°34'3 8.7
2018-Feb-19 08:00N 47°19' W 002°33'2 4.0
2018-Feb-19 07:23N 47°21' W 002°31'0 0.0
2018-Feb-19 07:00N 47°21' W 002°31'0 0.0
2018-Feb-17 17:25N 47°21' W 002°31'0 0.0
2018-Feb-17 17:00N 47°21' W 002°31'0 0.1
2018-Feb-17 16:30N 47°21' W 002°31'0 0.1
2018-Feb-17 15:58N 47°21' W 002°31'0 0.0
2018-Feb-17 15:30N 47°21' W 002°31'0 0.0
2018-Feb-17 14:59N 47°21' W 002°31'0 0.0
2018-Feb-17 14:30N 47°21' W 002°31'0 0.0
2018-Feb-17 14:00N 47°21' W 002°31'0 0.0
2018-Feb-17 13:30N 47°21' W 002°31'0 0.0
2018-Feb-17 13:00N 47°21' W 002°31'4 7.8
2018-Feb-17 12:30N 47°18' W 002°35'7 9.6
2018-Feb-17 11:43N 47°10' W 002°34'  
2018-Feb-14 17:55N 45°59' W 001°38'4 9.1
2018-Feb-14 17:30N 46°01' W 001°34'5 9.0
2018-Feb-14 17:00N 46°04' W 001°29'5 9.2
2018-Feb-14 16:30N 46°05' W 001°22'5 9.2
2018-Feb-14 16:00N 46°07' W 001°16'3 5.9
2018-Feb-14 15:30N 46°09' W 001°13'0 0.0
2018-Feb-14 15:00N 46°09' W 001°13'0 0.0
2018-Feb-14 14:30N 46°09' W 001°13'0 0.0
2018-Feb-14 14:00N 46°09' W 001°13'0 0.0
2018-Feb-14 13:30N 46°09' W 001°13'0 0.0
2018-Feb-14 13:00N 46°09' W 001°13'0 0.0
2018-Feb-14 12:30N 46°09' W 001°13'3 5.8
2018-Feb-14 12:00N 46°07' W 001°16'510.5
2018-Feb-14 11:30N 46°05' W 001°23'510.7
2018-Feb-14 11:00N 46°03' W 001°30'510.0
2018-Feb-14 10:30N 45°60' W 001°36'  
2018-Feb-11 12:23N 47°09' W 002°34'4 9.5
2018-Feb-11 11:58N 47°13' W 002°34'4 9.7
2018-Feb-11 11:30N 47°18' W 002°35'4 6.1
2018-Feb-11 10:51N 47°21' W 002°31'0 0.0
2018-Feb-11 10:27N 47°21' W 002°31'0 0.0
2018-Feb-11 09:57N 47°21' W 002°31'0 0.0
2018-Feb-11 09:26N 47°21' W 002°31'0 0.0
2018-Feb-11 09:00N 47°21' W 002°31'0 0.1
2018-Feb-11 08:30N 47°21' W 002°31'0 0.0
2018-Feb-11 08:00N 47°21' W 002°31'3 6.1
2018-Feb-11 07:30N 47°19' W 002°34'  
Track history (hours):
 
Tides and Currents Weather Stations Pressure Air Temp Water Temp Dewpoint Dewpoint Depression Visibility Wind Speed Wind Dir Waves Ship Positions

F/V El Amanecer

Last reported at 2018-Feb-19 08:21 UTC. Time now 2018-Feb-21 23:16 UTC.
Position N 47°16' W 002°34'.

Length 20 m; draft 3.5 m.

Type: Fishing. MMSI: 228157000.

Date/timePositionNaut miles runAvg speedWind from/ knotsBaromVisibWave heightAir tempDewpointWater temp
2018-Feb-19 08:21N 47°16' W 002°34'3 8.7
2018-Feb-19 08:00N 47°19' W 002°33'2 4.0
2018-Feb-19 07:23N 47°21' W 002°31'0 0.0
2018-Feb-19 07:00N 47°21' W 002°31'0 0.0
2018-Feb-17 17:25N 47°21' W 002°31'0 0.0
2018-Feb-17 17:00N 47°21' W 002°31'0 0.1
2018-Feb-17 16:30N 47°21' W 002°31'0 0.1
2018-Feb-17 15:58N 47°21' W 002°31'0 0.0
2018-Feb-17 15:30N 47°21' W 002°31'0 0.0
2018-Feb-17 14:59N 47°21' W 002°31'0 0.0
2018-Feb-17 14:30N 47°21' W 002°31'0 0.0
2018-Feb-17 14:00N 47°21' W 002°31'0 0.0
2018-Feb-17 13:30N 47°21' W 002°31'0 0.0
2018-Feb-17 13:00N 47°21' W 002°31'4 7.8
2018-Feb-17 12:30N 47°18' W 002°35'7 9.6
2018-Feb-17 11:43N 47°10' W 002°34'  
2018-Feb-14 17:55N 45°59' W 001°38'4 9.1
2018-Feb-14 17:30N 46°01' W 001°34'5 9.0
2018-Feb-14 17:00N 46°04' W 001°29'5 9.2
2018-Feb-14 16:30N 46°05' W 001°22'5 9.2
2018-Feb-14 16:00N 46°07' W 001°16'3 5.9
2018-Feb-14 15:30N 46°09' W 001°13'0 0.0
2018-Feb-14 15:00N 46°09' W 001°13'0 0.0
2018-Feb-14 14:30N 46°09' W 001°13'0 0.0
2018-Feb-14 14:00N 46°09' W 001°13'0 0.0
2018-Feb-14 13:30N 46°09' W 001°13'0 0.0
2018-Feb-14 13:00N 46°09' W 001°13'0 0.0
2018-Feb-14 12:30N 46°09' W 001°13'3 5.8
2018-Feb-14 12:00N 46°07' W 001°16'510.5
2018-Feb-14 11:30N 46°05' W 001°23'510.7
2018-Feb-14 11:00N 46°03' W 001°30'510.0
2018-Feb-14 10:30N 45°60' W 001°36'  
2018-Feb-11 12:23N 47°09' W 002°34'4 9.5
2018-Feb-11 11:58N 47°13' W 002°34'4 9.7
2018-Feb-11 11:30N 47°18' W 002°35'4 6.1
2018-Feb-11 10:51N 47°21' W 002°31'0 0.0
2018-Feb-11 10:27N 47°21' W 002°31'0 0.0
2018-Feb-11 09:57N 47°21' W 002°31'0 0.0
2018-Feb-11 09:26N 47°21' W 002°31'0 0.0
2018-Feb-11 09:00N 47°21' W 002°31'0 0.1
2018-Feb-11 08:30N 47°21' W 002°31'0 0.0
2018-Feb-11 08:00N 47°21' W 002°31'3 6.1
2018-Feb-11 07:30N 47°19' W 002°34'  

Dump ship's entire track history